Weather History for Coatesville, PA

Change the Weather History Date:

Wednesday, March 26, 2014

  Actual Average (KLNS) Record (KLNS)
Temperature  
Mean Temperature 30 °F -  
Max Temperature 33 °F 52 °F 75 °F (2004)
Min Temperature 24 °F 33 °F 21 °F (1983)
Degree Days  
Heating Degree Days 36    
Moisture  
Dew Point 14 °F    
Average Humidity 56    
Maximum Humidity 100    
Minimum Humidity 25    
Precipitation  
Precipitation 0.00 in - - ()
Sea Level Pressure  
Sea Level Pressure 30.00 in    
Wind  
Wind Speed 12 mph (NW)    
Max Wind Speed 30 mph    
Max Gust Speed 43 mph    
Visibility 9 miles    
Events      
Averages and records for this station are not official NWS values.
T = Trace of Precipitation, MM = Missing Value Source: NWS Daily Summary

Daily Weather History Graph

Daily Weather History Graph

Search for Another Location

Airport:

Trip Planner

Search our weather history database for the weather conditions in past years. The results will help you decide how hot, cold, wet, or windy it might be!

Date:

Astronomy

Mar. 26, 2014 Rise Set
Actual Time 6:57 AM EDT 7:21 PM EDT
Civil Twilight 6:30 AM EDT 7:48 PM EDT
Nautical Twilight 5:58 AM EDT 8:20 PM EDT
Astronomical Twilight 5:25 AM EDT 8:53 PM EDT
Moon 4:03 AM EDT (3/26) 2:57 PM EDT (3/26)
Length of Visible Light 13h 18m
Length of Day
12h 24m
Waning Crescent, 22% of the Moon is Illuminated
Mar 26
Waning Crescent
Mar 30
New
Apr 7
First Quarter
Apr 15
Full
Apr 22
Last Quarter

Hourly Weather History & Observations

Time (EDT) Temp. Windchill Dew Point Humidity Pressure Visibility Wind Dir Wind Speed Gust Speed Precip Events Conditions
12:15 AM 30.2 °F - 30.2 °F 100% 29.88 in 8.0 mi Calm Calm - N/A   Overcast
12:35 AM 30.2 °F - 30.2 °F 100% 29.87 in 10.0 mi Calm Calm - N/A   Overcast
12:55 AM 30.2 °F - 30.2 °F 100% 29.86 in 10.0 mi Calm Calm - N/A   Overcast
1:15 AM 30.2 °F - 30.2 °F 100% 29.86 in 9.0 mi Calm Calm - N/A   Overcast
1:35 AM 30.2 °F 26.7 °F 30.2 °F 100% 29.85 in 8.0 mi NNW 3.5 mph - N/A   Overcast
1:55 AM 30.2 °F 25.4 °F 30.2 °F 100% 29.85 in 8.0 mi NNW 4.6 mph - N/A   Mostly Cloudy
2:15 AM 30.2 °F 22.6 °F 30.2 °F 100% 29.84 in 5.0 mi NNW 8.1 mph - N/A   Scattered Clouds
2:35 AM 30.2 °F 24.3 °F 30.2 °F 100% 29.84 in 5.0 mi NW 5.8 mph - N/A   Partly Cloudy
2:55 AM 30.2 °F 22.6 °F 30.2 °F 100% 29.84 in 5.0 mi NW 8.1 mph - N/A   Clear
3:15 AM 30.2 °F 21.9 °F 30.2 °F 100% 29.84 in 5.0 mi NW 9.2 mph - N/A   Clear
3:35 AM 30.2 °F 22.6 °F 30.2 °F 100% 29.84 in 4.0 mi NW 8.1 mph - N/A   Clear
3:55 AM 28.4 °F 20.4 °F 28.4 °F 100% 29.84 in 3.0 mi WNW 8.1 mph - N/A   Clear
4:15 AM 28.4 °F 18.0 °F 28.4 °F 100% 29.84 in 2.5 mi NW 12.7 mph - N/A   Clear
4:35 AM - - - N/A% 29.84 in 3.0 mi NW 10.4 mph - N/A   Scattered Clouds
4:55 AM 30.2 °F 19.8 °F 28.4 °F 93% 29.84 in 5.0 mi NW 13.8 mph - N/A   Partly Cloudy
5:15 AM 30.2 °F 20.2 °F 28.4 °F 93% 29.84 in 8.0 mi NW 12.7 mph - N/A   Clear
5:35 AM 30.2 °F 19.3 °F 28.4 °F 93% 29.84 in 7.0 mi NW 15.0 mph 19.6 mph N/A   Partly Cloudy
5:55 AM 28.4 °F 17.0 °F 28.4 °F 100% 29.85 in 6.0 mi NW 15.0 mph - N/A   Scattered Clouds
6:15 AM 28.4 °F 17.5 °F 26.6 °F 93% 29.86 in 7.0 mi NW 13.8 mph - N/A   Partly Cloudy
6:35 AM 28.4 °F 16.6 °F 24.8 °F 86% 29.87 in 10.0 mi NW 16.1 mph 25.3 mph N/A   Scattered Clouds
6:55 AM 28.4 °F 17.0 °F 23.0 °F 80% 29.88 in 10.0 mi NNW 15.0 mph 23.0 mph N/A   Scattered Clouds
7:15 AM 28.4 °F 15.4 °F 23.0 °F 80% 29.89 in 10.0 mi NW 19.6 mph 25.3 mph N/A   Clear
7:35 AM 28.4 °F 16.2 °F 23.0 °F 80% 29.91 in 10.0 mi NW 17.3 mph 32.2 mph N/A   Clear
7:55 AM 28.4 °F 16.2 °F 21.2 °F 74% 29.93 in 10.0 mi NNW 17.3 mph 29.9 mph N/A   Clear
8:15 AM 28.4 °F 15.8 °F 19.4 °F 69% 29.94 in 10.0 mi NNW 18.4 mph 26.5 mph N/A   Clear
8:35 AM 28.4 °F 15.4 °F 19.4 °F 69% 29.95 in 10.0 mi NNW 19.6 mph 32.2 mph N/A   Clear
8:55 AM 30.2 °F 18.1 °F 17.6 °F 60% 29.96 in 10.0 mi NNW 18.4 mph 28.8 mph N/A   Clear
9:15 AM 30.2 °F 17.1 °F 15.8 °F 55% 29.98 in 10.0 mi NNW 21.9 mph 33.4 mph N/A   Clear
9:35 AM 30.2 °F 17.1 °F 14.0 °F 51% 29.99 in 10.0 mi NNW 21.9 mph 31.1 mph N/A   Partly Cloudy
9:55 AM 30.2 °F 17.8 °F 12.2 °F 47% 30.00 in 10.0 mi NNW 19.6 mph 32.2 mph N/A   Partly Cloudy
10:15 AM 32.0 °F 19.8 °F 14.0 °F 48% 30.01 in 10.0 mi NNW 20.7 mph 31.1 mph N/A   Partly Cloudy
10:35 AM 30.2 °F 17.1 °F 14.0 °F 51% 30.01 in 10.0 mi NW 21.9 mph 32.2 mph N/A   Mostly Cloudy
10:55 AM 30.2 °F 18.1 °F 12.2 °F 47% 30.01 in 10.0 mi NNW 18.4 mph 33.4 mph N/A   Scattered Clouds
11:15 AM 30.2 °F 17.4 °F 14.0 °F 51% 30.01 in 10.0 mi NW 20.7 mph 34.5 mph N/A   Scattered Clouds
11:35 AM 30.2 °F 16.2 °F 14.0 °F 51% 30.01 in 10.0 mi NW 25.3 mph 34.5 mph N/A   Mostly Cloudy
11:55 AM 30.2 °F 17.8 °F 14.0 °F 51% 30.02 in 10.0 mi NNW 19.6 mph 31.1 mph N/A   Scattered Clouds
12:15 PM 30.2 °F 16.8 °F 10.4 °F 44% 30.02 in 10.0 mi NW 23.0 mph 33.4 mph N/A   Partly Cloudy
12:35 PM 32.0 °F 18.4 °F 10.4 °F 41% 30.02 in 10.0 mi NNW 26.5 mph 34.5 mph N/A   Partly Cloudy
12:55 PM 32.0 °F 18.6 °F 10.4 °F 41% 30.02 in 10.0 mi NW 25.3 mph 38.0 mph N/A   Partly Cloudy
1:15 PM 32.0 °F 18.6 °F 8.6 °F 38% 30.02 in 10.0 mi NW 25.3 mph 35.7 mph N/A   Partly Cloudy
1:35 PM 32.0 °F 17.6 °F 10.4 °F 41% 30.02 in 10.0 mi NW 29.9 mph 36.8 mph N/A   Clear
1:55 PM 32.0 °F 17.9 °F 8.6 °F 38% 30.01 in 10.0 mi NW 28.8 mph 41.4 mph N/A   Clear
2:15 PM 32.0 °F 19.2 °F 6.8 °F 35% 30.01 in 10.0 mi NW 23.0 mph 42.6 mph N/A   Clear
2:35 PM 32.0 °F 18.6 °F 8.6 °F 38% 30.02 in 10.0 mi NNW 25.3 mph 38.0 mph N/A   Clear
2:55 PM 32.0 °F 18.9 °F 6.8 °F 35% 30.02 in 10.0 mi NW 24.2 mph 39.1 mph N/A   Clear
3:15 PM 32.0 °F 20.1 °F 6.8 °F 35% 30.02 in 10.0 mi NNW 19.6 mph 36.8 mph N/A   Clear
3:35 PM 32.0 °F 20.5 °F 6.8 °F 35% 30.03 in 10.0 mi NW 18.4 mph 33.4 mph N/A   Clear
3:55 PM 32.0 °F 18.6 °F 5.0 °F 32% 30.04 in 10.0 mi NW 25.3 mph 34.5 mph N/A   Clear
4:15 PM 33.8 °F 20.3 °F 3.2 °F 28% 30.05 in 10.0 mi NW 28.8 mph 41.4 mph N/A   Clear
4:35 PM 33.8 °F 21.0 °F 3.2 °F 28% 30.05 in 10.0 mi NW 25.3 mph 29.9 mph N/A   Clear
4:55 PM 33.8 °F 21.3 °F 3.2 °F 28% 30.06 in 10.0 mi NW 24.2 mph 31.1 mph N/A   Clear
5:15 PM 33.8 °F 22.5 °F 1.4 °F 25% 30.06 in 10.0 mi NW 19.6 mph 29.9 mph N/A   Clear
5:35 PM 33.8 °F 22.8 °F 3.2 °F 28% 30.07 in 10.0 mi NW 18.4 mph 29.9 mph N/A   Clear
5:55 PM 33.8 °F 22.5 °F 1.4 °F 25% 30.07 in 10.0 mi NW 19.6 mph 29.9 mph N/A   Clear
6:15 PM 32.0 °F 20.1 °F 1.4 °F 27% 30.08 in 10.0 mi NW 19.6 mph 27.6 mph N/A   Clear
6:35 PM 32.0 °F 20.8 °F 1.4 °F 27% 30.09 in 10.0 mi NNW 17.3 mph 28.8 mph N/A   Clear
6:55 PM 32.0 °F 19.2 °F -0.4 °F 25% 30.10 in 10.0 mi NW 23.0 mph 35.7 mph N/A   Clear
7:15 PM 32.0 °F 19.8 °F -0.4 °F 25% 30.11 in 10.0 mi NW 20.7 mph 26.5 mph N/A   Clear
7:35 PM 32.0 °F 21.2 °F -0.4 °F 25% 30.13 in 10.0 mi NW 16.1 mph 24.2 mph N/A   Clear
7:55 PM 32.0 °F 23.0 °F 1.4 °F 27% 30.14 in 10.0 mi NW 11.5 mph - N/A   Clear
8:15 PM 32.0 °F 20.8 °F 1.4 °F 27% 30.15 in 10.0 mi NW 17.3 mph 24.2 mph N/A   Clear
8:35 PM 32.0 °F 20.8 °F -0.4 °F 25% 30.17 in 10.0 mi NW 17.3 mph 25.3 mph N/A   Clear
8:55 PM 32.0 °F 21.6 °F -0.4 °F 25% 30.18 in 10.0 mi NW 15.0 mph 20.7 mph N/A   Clear
9:15 PM 30.2 °F 20.2 °F -0.4 °F 27% 30.19 in 10.0 mi NW 12.7 mph 20.7 mph N/A   Clear
9:35 PM 30.2 °F 20.2 °F 1.4 °F 29% 30.20 in 10.0 mi NW 12.7 mph - N/A   Clear
9:55 PM 30.2 °F 20.8 °F 1.4 °F 29% 30.22 in 10.0 mi NW 11.5 mph 16.1 mph N/A   Clear
10:15 PM 30.2 °F 21.9 °F 1.4 °F 29% 30.23 in 10.0 mi NW 9.2 mph 16.1 mph N/A   Clear
10:35 PM 28.4 °F 19.1 °F 1.4 °F 31% 30.23 in 10.0 mi NW 10.4 mph - N/A   Clear
10:55 PM 28.4 °F 19.1 °F 3.2 °F 34% 30.24 in 10.0 mi WNW 10.4 mph - N/A   Clear
11:15 PM 28.4 °F 21.2 °F 3.2 °F 34% 30.25 in 10.0 mi WNW 6.9 mph - N/A   Clear
11:35 PM 26.6 °F 19.1 °F 5.0 °F 40% 30.26 in 10.0 mi NW 6.9 mph - N/A   Clear
11:55 PM 24.8 °F 19.1 °F 5.0 °F 43% 30.27 in 10.0 mi WNW 4.6 mph - N/A   Clear